sensor_id;sensor_type;location;lat;lon;timestamp;P1;durP1;ratioP1;P2;durP2;ratioP2
71080;SDS011;58740;50.672;18.690;2022-11-20T00:01:32;67.30;;;27.30;;
71080;SDS011;58740;50.672;18.690;2022-11-20T00:04:01;86.10;;;34.60;;
71080;SDS011;58740;50.672;18.690;2022-11-20T00:06:29;84.80;;;31.90;;
71080;SDS011;58740;50.672;18.690;2022-11-20T00:08:58;88.30;;;35.30;;
71080;SDS011;58740;50.672;18.690;2022-11-20T00:11:31;88.70;;;34.00;;
71080;SDS011;58740;50.672;18.690;2022-11-20T00:14:01;73.90;;;31.10;;
71080;SDS011;58740;50.672;18.690;2022-11-20T00:16:31;72.70;;;29.20;;
71080;SDS011;58740;50.672;18.690;2022-11-20T00:19:00;83.20;;;32.90;;
71080;SDS011;58740;50.672;18.690;2022-11-20T00:21:28;82.70;;;31.70;;
71080;SDS011;58740;50.672;18.690;2022-11-20T00:23:58;75.30;;;30.80;;
71080;SDS011;58740;50.672;18.690;2022-11-20T00:26:27;104.60;;;39.10;;
71080;SDS011;58740;50.672;18.690;2022-11-20T00:28:58;103.30;;;41.50;;
71080;SDS011;58740;50.672;18.690;2022-11-20T00:31:28;98.70;;;39.20;;
71080;SDS011;58740;50.672;18.690;2022-11-20T00:33:57;110.00;;;35.90;;
71080;SDS011;58740;50.672;18.690;2022-11-20T00:36:26;83.60;;;33.30;;
71080;SDS011;58740;50.672;18.690;2022-11-20T00:38:57;72.20;;;30.10;;
71080;SDS011;58740;50.672;18.690;2022-11-20T00:41:27;70.20;;;30.40;;
71080;SDS011;58740;50.672;18.690;2022-11-20T00:43:56;72.40;;;29.00;;
71080;SDS011;58740;50.672;18.690;2022-11-20T00:46:26;73.60;;;31.50;;
71080;SDS011;58740;50.672;18.690;2022-11-20T00:48:55;70.60;;;32.00;;
71080;SDS011;58740;50.672;18.690;2022-11-20T00:51:26;68.50;;;28.80;;
71080;SDS011;58740;50.672;18.690;2022-11-20T00:53:56;77.50;;;32.70;;
71080;SDS011;58740;50.672;18.690;2022-11-20T00:56:25;75.70;;;32.10;;
71080;SDS011;58740;50.672;18.690;2022-11-20T00:58:54;74.00;;;30.50;;
71080;SDS011;58740;50.672;18.690;2022-11-20T01:01:25;78.40;;;31.00;;
71080;SDS011;58740;50.672;18.690;2022-11-20T01:03:57;73.80;;;30.10;;
71080;SDS011;58740;50.672;18.690;2022-11-20T01:06:32;77.00;;;31.50;;
71080;SDS011;58740;50.672;18.690;2022-11-20T01:09:12;76.70;;;29.20;;
71080;SDS011;58740;50.672;18.690;2022-11-20T01:11:43;81.50;;;32.40;;
71080;SDS011;58740;50.672;18.690;2022-11-20T01:14:17;75.30;;;32.70;;
71080;SDS011;58740;50.672;18.690;2022-11-20T01:16:49;66.40;;;29.10;;
71080;SDS011;58740;50.672;18.690;2022-11-20T01:19:21;77.30;;;33.70;;
71080;SDS011;58740;50.672;18.690;2022-11-20T01:21:52;94.70;;;40.20;;
71080;SDS011;58740;50.672;18.690;2022-11-20T01:24:21;106.20;;;41.20;;
71080;SDS011;58740;50.672;18.690;2022-11-20T01:26:50;80.20;;;35.30;;
71080;SDS011;58740;50.672;18.690;2022-11-20T01:29:21;87.20;;;32.70;;
71080;SDS011;58740;50.672;18.690;2022-11-20T01:31:52;87.30;;;37.30;;
71080;SDS011;58740;50.672;18.690;2022-11-20T01:34:21;79.00;;;34.30;;
71080;SDS011;58740;50.672;18.690;2022-11-20T01:36:50;94.20;;;38.80;;
71080;SDS011;58740;50.672;18.690;2022-11-20T01:39:21;104.70;;;40.70;;
71080;SDS011;58740;50.672;18.690;2022-11-20T01:41:52;92.00;;;38.90;;
71080;SDS011;58740;50.672;18.690;2022-11-20T01:44:56;87.50;;;35.90;;
71080;SDS011;58740;50.672;18.690;2022-11-20T01:47:33;86.90;;;34.90;;
71080;SDS011;58740;50.672;18.690;2022-11-20T01:50:14;93.30;;;34.40;;
71080;SDS011;58740;50.672;18.690;2022-11-20T01:52:57;91.60;;;37.60;;
71080;SDS011;58740;50.672;18.690;2022-11-20T01:55:43;87.50;;;34.60;;
71080;SDS011;58740;50.672;18.690;2022-11-20T01:58:18;84.80;;;34.80;;
71080;SDS011;58740;50.672;18.690;2022-11-20T02:00:48;67.50;;;30.00;;
71080;SDS011;58740;50.672;18.690;2022-11-20T02:03:19;89.30;;;36.10;;
71080;SDS011;58740;50.672;18.690;2022-11-20T02:05:55;96.80;;;39.60;;
71080;SDS011;58740;50.672;18.690;2022-11-20T02:08:39;92.40;;;35.70;;
71080;SDS011;58740;50.672;18.690;2022-11-20T02:11:07;97.40;;;39.20;;
71080;SDS011;58740;50.672;18.690;2022-11-20T02:13:35;119.70;;;46.70;;
71080;SDS011;58740;50.672;18.690;2022-11-20T02:16:27;114.70;;;45.90;;
71080;SDS011;58740;50.672;18.690;2022-11-20T02:19:00;104.20;;;44.70;;
71080;SDS011;58740;50.672;18.690;2022-11-20T02:21:35;97.90;;;39.50;;
71080;SDS011;58740;50.672;18.690;2022-11-20T02:24:17;95.00;;;40.70;;
71080;SDS011;58740;50.672;18.690;2022-11-20T02:26:53;101.70;;;41.20;;
71080;SDS011;58740;50.672;18.690;2022-11-20T02:29:34;89.60;;;40.70;;
71080;SDS011;58740;50.672;18.690;2022-11-20T02:32:20;97.80;;;40.50;;
71080;SDS011;58740;50.672;18.690;2022-11-20T02:34:50;100.90;;;39.90;;
71080;SDS011;58740;50.672;18.690;2022-11-20T02:37:20;101.50;;;39.70;;
71080;SDS011;58740;50.672;18.690;2022-11-20T02:39:50;104.50;;;42.60;;
71080;SDS011;58740;50.672;18.690;2022-11-20T02:42:19;97.50;;;42.50;;
71080;SDS011;58740;50.672;18.690;2022-11-20T02:44:46;81.80;;;33.10;;
71080;SDS011;58740;50.672;18.690;2022-11-20T02:47:14;88.90;;;36.90;;
71080;SDS011;58740;50.672;18.690;2022-11-20T02:49:42;88.20;;;35.70;;
71080;SDS011;58740;50.672;18.690;2022-11-20T02:52:09;72.30;;;29.90;;
71080;SDS011;58740;50.672;18.690;2022-11-20T02:54:37;84.90;;;34.70;;
71080;SDS011;58740;50.672;18.690;2022-11-20T02:57:05;63.90;;;29.10;;
71080;SDS011;58740;50.672;18.690;2022-11-20T02:59:32;74.30;;;29.30;;
71080;SDS011;58740;50.672;18.690;2022-11-20T03:02:00;128.90;;;51.10;;
71080;SDS011;58740;50.672;18.690;2022-11-20T03:04:28;128.30;;;50.00;;
71080;SDS011;58740;50.672;18.690;2022-11-20T03:06:56;113.70;;;45.40;;
71080;SDS011;58740;50.672;18.690;2022-11-20T03:09:24;103.90;;;41.70;;
71080;SDS011;58740;50.672;18.690;2022-11-20T03:11:51;93.70;;;43.40;;
71080;SDS011;58740;50.672;18.690;2022-11-20T03:14:19;94.60;;;41.30;;
71080;SDS011;58740;50.672;18.690;2022-11-20T03:16:47;102.00;;;43.60;;
71080;SDS011;58740;50.672;18.690;2022-11-20T03:19:15;92.90;;;39.80;;
71080;SDS011;58740;50.672;18.690;2022-11-20T03:21:42;90.00;;;41.90;;
71080;SDS011;58740;50.672;18.690;2022-11-20T03:24:10;97.00;;;41.20;;
71080;SDS011;58740;50.672;18.690;2022-11-20T03:26:38;90.90;;;38.50;;
71080;SDS011;58740;50.672;18.690;2022-11-20T03:29:07;94.90;;;39.90;;
71080;SDS011;58740;50.672;18.690;2022-11-20T03:31:37;83.40;;;35.50;;
71080;SDS011;58740;50.672;18.690;2022-11-20T03:34:10;62.30;;;26.90;;
71080;SDS011;58740;50.672;18.690;2022-11-20T03:36:40;65.00;;;28.00;;
71080;SDS011;58740;50.672;18.690;2022-11-20T03:39:09;81.90;;;33.90;;
71080;SDS011;58740;50.672;18.690;2022-11-20T03:41:39;71.70;;;28.20;;
71080;SDS011;58740;50.672;18.690;2022-11-20T03:44:10;81.70;;;34.50;;
71080;SDS011;58740;50.672;18.690;2022-11-20T03:46:39;59.30;;;28.50;;
71080;SDS011;58740;50.672;18.690;2022-11-20T03:49:07;112.00;;;42.30;;
71080;SDS011;58740;50.672;18.690;2022-11-20T03:51:35;119.90;;;49.50;;
71080;SDS011;58740;50.672;18.690;2022-11-20T03:54:06;105.30;;;44.80;;
71080;SDS011;58740;50.672;18.690;2022-11-20T03:56:37;94.50;;;42.20;;
71080;SDS011;58740;50.672;18.690;2022-11-20T03:59:06;90.60;;;35.70;;
71080;SDS011;58740;50.672;18.690;2022-11-20T04:01:36;87.00;;;36.10;;
71080;SDS011;58740;50.672;18.690;2022-11-20T04:04:05;86.20;;;36.00;;
71080;SDS011;58740;50.672;18.690;2022-11-20T04:06:35;88.60;;;38.40;;
71080;SDS011;58740;50.672;18.690;2022-11-20T04:09:05;82.80;;;34.80;;
71080;SDS011;58740;50.672;18.690;2022-11-20T04:11:36;79.10;;;35.20;;
71080;SDS011;58740;50.672;18.690;2022-11-20T04:14:05;77.40;;;34.00;;
71080;SDS011;58740;50.672;18.690;2022-11-20T04:16:35;54.50;;;25.40;;
71080;SDS011;58740;50.672;18.690;2022-11-20T04:19:06;59.80;;;26.10;;
71080;SDS011;58740;50.672;18.690;2022-11-20T04:21:37;59.50;;;27.40;;
71080;SDS011;58740;50.672;18.690;2022-11-20T04:24:05;88.00;;;36.20;;
71080;SDS011;58740;50.672;18.690;2022-11-20T04:26:34;40.60;;;20.70;;
71080;SDS011;58740;50.672;18.690;2022-11-20T04:29:02;57.10;;;25.70;;
71080;SDS011;58740;50.672;18.690;2022-11-20T04:31:33;59.20;;;26.40;;
71080;SDS011;58740;50.672;18.690;2022-11-20T04:34:03;101.90;;;44.20;;
71080;SDS011;58740;50.672;18.690;2022-11-20T04:36:33;106.40;;;47.40;;
71080;SDS011;58740;50.672;18.690;2022-11-20T04:39:03;91.60;;;42.10;;
71080;SDS011;58740;50.672;18.690;2022-11-20T04:41:35;94.60;;;41.60;;
71080;SDS011;58740;50.672;18.690;2022-11-20T04:44:05;97.00;;;35.90;;
71080;SDS011;58740;50.672;18.690;2022-11-20T04:46:38;79.70;;;36.10;;
71080;SDS011;58740;50.672;18.690;2022-11-20T04:49:08;85.10;;;33.70;;
71080;SDS011;58740;50.672;18.690;2022-11-20T04:51:38;89.50;;;38.30;;
71080;SDS011;58740;50.672;18.690;2022-11-20T04:54:06;80.60;;;35.10;;
71080;SDS011;58740;50.672;18.690;2022-11-20T04:56:33;91.50;;;38.50;;
71080;SDS011;58740;50.672;18.690;2022-11-20T04:59:02;66.10;;;29.00;;
71080;SDS011;58740;50.672;18.690;2022-11-20T05:01:30;93.80;;;39.50;;
71080;SDS011;58740;50.672;18.690;2022-11-20T05:03:58;87.50;;;39.90;;
71080;SDS011;58740;50.672;18.690;2022-11-20T05:06:26;89.60;;;38.50;;
71080;SDS011;58740;50.672;18.690;2022-11-20T05:08:53;92.40;;;36.30;;
71080;SDS011;58740;50.672;18.690;2022-11-20T05:11:21;107.10;;;45.60;;
71080;SDS011;58740;50.672;18.690;2022-11-20T05:13:50;106.40;;;43.50;;
71080;SDS011;58740;50.672;18.690;2022-11-20T05:16:23;109.30;;;42.30;;
71080;SDS011;58740;50.672;18.690;2022-11-20T05:18:53;92.50;;;39.40;;
71080;SDS011;58740;50.672;18.690;2022-11-20T05:21:22;107.90;;;41.60;;
71080;SDS011;58740;50.672;18.690;2022-11-20T05:23:50;96.20;;;40.20;;
71080;SDS011;58740;50.672;18.690;2022-11-20T05:26:20;92.10;;;39.00;;
71080;SDS011;58740;50.672;18.690;2022-11-20T05:28:50;92.80;;;37.50;;
71080;SDS011;58740;50.672;18.690;2022-11-20T05:31:20;109.10;;;44.30;;
71080;SDS011;58740;50.672;18.690;2022-11-20T05:33:56;113.20;;;47.30;;
71080;SDS011;58740;50.672;18.690;2022-11-20T05:36:25;106.20;;;42.90;;
71080;SDS011;58740;50.672;18.690;2022-11-20T05:38:52;83.80;;;37.40;;
71080;SDS011;58740;50.672;18.690;2022-11-20T05:41:28;86.40;;;37.00;;
71080;SDS011;58740;50.672;18.690;2022-11-20T05:43:57;87.60;;;39.10;;
71080;SDS011;58740;50.672;18.690;2022-11-20T05:46:26;93.50;;;40.60;;
71080;SDS011;58740;50.672;18.690;2022-11-20T05:48:57;93.90;;;38.10;;
71080;SDS011;58740;50.672;18.690;2022-11-20T05:51:26;90.80;;;39.30;;
71080;SDS011;58740;50.672;18.690;2022-11-20T05:53:57;97.60;;;40.20;;
71080;SDS011;58740;50.672;18.690;2022-11-20T05:56:26;92.10;;;39.30;;
71080;SDS011;58740;50.672;18.690;2022-11-20T05:58:53;86.20;;;36.50;;
71080;SDS011;58740;50.672;18.690;2022-11-20T06:01:23;66.80;;;28.70;;
71080;SDS011;58740;50.672;18.690;2022-11-20T06:03:53;58.30;;;27.20;;
71080;SDS011;58740;50.672;18.690;2022-11-20T06:06:21;91.80;;;41.10;;
71080;SDS011;58740;50.672;18.690;2022-11-20T06:08:50;89.20;;;38.70;;
71080;SDS011;58740;50.672;18.690;2022-11-20T06:11:18;91.30;;;37.90;;
71080;SDS011;58740;50.672;18.690;2022-11-20T06:13:46;88.80;;;37.90;;
71080;SDS011;58740;50.672;18.690;2022-11-20T06:16:16;92.50;;;40.30;;
71080;SDS011;58740;50.672;18.690;2022-11-20T06:18:46;87.10;;;38.90;;
71080;SDS011;58740;50.672;18.690;2022-11-20T06:21:17;124.80;;;54.70;;
71080;SDS011;58740;50.672;18.690;2022-11-20T06:23:48;145.80;;;53.90;;
71080;SDS011;58740;50.672;18.690;2022-11-20T06:26:19;132.60;;;51.60;;
71080;SDS011;58740;50.672;18.690;2022-11-20T06:28:53;125.40;;;50.00;;
71080;SDS011;58740;50.672;18.690;2022-11-20T06:31:23;121.00;;;47.30;;
71080;SDS011;58740;50.672;18.690;2022-11-20T06:33:52;123.90;;;47.50;;
71080;SDS011;58740;50.672;18.690;2022-11-20T06:36:22;129.80;;;48.90;;
71080;SDS011;58740;50.672;18.690;2022-11-20T06:38:50;116.60;;;48.80;;
71080;SDS011;58740;50.672;18.690;2022-11-20T06:41:19;106.10;;;45.50;;
71080;SDS011;58740;50.672;18.690;2022-11-20T06:43:48;101.10;;;42.90;;
71080;SDS011;58740;50.672;18.690;2022-11-20T06:46:18;110.00;;;45.20;;
71080;SDS011;58740;50.672;18.690;2022-11-20T06:48:48;102.90;;;42.80;;
71080;SDS011;58740;50.672;18.690;2022-11-20T06:51:17;101.90;;;45.40;;
71080;SDS011;58740;50.672;18.690;2022-11-20T06:53:45;102.30;;;45.00;;
71080;SDS011;58740;50.672;18.690;2022-11-20T06:56:13;101.10;;;44.30;;
71080;SDS011;58740;50.672;18.690;2022-11-20T06:58:40;96.70;;;41.30;;
71080;SDS011;58740;50.672;18.690;2022-11-20T07:01:13;94.90;;;43.40;;
71080;SDS011;58740;50.672;18.690;2022-11-20T07:03:42;110.80;;;45.30;;
71080;SDS011;58740;50.672;18.690;2022-11-20T07:06:10;103.00;;;44.70;;
71080;SDS011;58740;50.672;18.690;2022-11-20T07:08:38;89.60;;;37.60;;
71080;SDS011;58740;50.672;18.690;2022-11-20T07:11:07;95.50;;;39.30;;
71080;SDS011;58740;50.672;18.690;2022-11-20T07:13:35;94.20;;;38.00;;
71080;SDS011;58740;50.672;18.690;2022-11-20T07:16:06;93.30;;;40.10;;
71080;SDS011;58740;50.672;18.690;2022-11-20T07:18:36;67.40;;;32.10;;
71080;SDS011;58740;50.672;18.690;2022-11-20T07:21:06;91.60;;;39.40;;
71080;SDS011;58740;50.672;18.690;2022-11-20T07:23:36;81.50;;;38.30;;
71080;SDS011;58740;50.672;18.690;2022-11-20T07:26:06;54.30;;;24.30;;
71080;SDS011;58740;50.672;18.690;2022-11-20T07:28:35;119.40;;;50.70;;
71080;SDS011;58740;50.672;18.690;2022-11-20T07:31:04;120.70;;;53.40;;
71080;SDS011;58740;50.672;18.690;2022-11-20T07:33:34;106.50;;;47.90;;
71080;SDS011;58740;50.672;18.690;2022-11-20T07:36:02;113.80;;;47.00;;
71080;SDS011;58740;50.672;18.690;2022-11-20T07:38:30;106.30;;;46.70;;
71080;SDS011;58740;50.672;18.690;2022-11-20T07:40:58;102.70;;;47.30;;
71080;SDS011;58740;50.672;18.690;2022-11-20T07:43:25;97.60;;;46.40;;
71080;SDS011;58740;50.672;18.690;2022-11-20T07:45:57;99.50;;;44.80;;
71080;SDS011;58740;50.672;18.690;2022-11-20T07:48:26;105.20;;;48.00;;
71080;SDS011;58740;50.672;18.690;2022-11-20T07:50:57;106.80;;;44.20;;
71080;SDS011;58740;50.672;18.690;2022-11-20T07:53:25;80.90;;;36.60;;
71080;SDS011;58740;50.672;18.690;2022-11-20T07:55:53;92.20;;;43.30;;
71080;SDS011;58740;50.672;18.690;2022-11-20T07:58:21;71.50;;;35.70;;
71080;SDS011;58740;50.672;18.690;2022-11-20T08:00:49;77.30;;;37.20;;
71080;SDS011;58740;50.672;18.690;2022-11-20T08:03:17;104.70;;;45.80;;
71080;SDS011;58740;50.672;18.690;2022-11-20T08:05:51;107.30;;;47.20;;
71080;SDS011;58740;50.672;18.690;2022-11-20T08:08:19;115.40;;;45.40;;
71080;SDS011;58740;50.672;18.690;2022-11-20T08:10:47;130.10;;;55.70;;
71080;SDS011;58740;50.672;18.690;2022-11-20T08:13:15;135.10;;;58.30;;
71080;SDS011;58740;50.672;18.690;2022-11-20T08:16:01;121.80;;;55.20;;
71080;SDS011;58740;50.672;18.690;2022-11-20T08:18:29;119.20;;;49.50;;
71080;SDS011;58740;50.672;18.690;2022-11-20T08:21:05;120.20;;;49.40;;
71080;SDS011;58740;50.672;18.690;2022-11-20T08:23:33;111.90;;;51.20;;
71080;SDS011;58740;50.672;18.690;2022-11-20T08:26:00;119.40;;;52.70;;
71080;SDS011;58740;50.672;18.690;2022-11-20T08:28:28;68.80;;;32.50;;
71080;SDS011;58740;50.672;18.690;2022-11-20T08:31:00;108.40;;;45.80;;
71080;SDS011;58740;50.672;18.690;2022-11-20T08:33:29;57.60;;;29.00;;
71080;SDS011;58740;50.672;18.690;2022-11-20T08:36:03;92.30;;;39.70;;
71080;SDS011;58740;50.672;18.690;2022-11-20T08:38:32;51.70;;;24.80;;
71080;SDS011;58740;50.672;18.690;2022-11-20T08:41:02;64.50;;;31.20;;
71080;SDS011;58740;50.672;18.690;2022-11-20T08:44:03;73.00;;;30.80;;
71080;SDS011;58740;50.672;18.690;2022-11-20T08:46:35;62.50;;;30.10;;
71080;SDS011;58740;50.672;18.690;2022-11-20T08:49:10;96.00;;;36.40;;
71080;SDS011;58740;50.672;18.690;2022-11-20T08:51:39;78.10;;;35.50;;
71080;SDS011;58740;50.672;18.690;2022-11-20T08:54:08;78.30;;;34.30;;
71080;SDS011;58740;50.672;18.690;2022-11-20T08:56:36;70.00;;;32.40;;
71080;SDS011;58740;50.672;18.690;2022-11-20T08:59:04;59.60;;;27.00;;
71080;SDS011;58740;50.672;18.690;2022-11-20T09:01:52;70.40;;;31.90;;
71080;SDS011;58740;50.672;18.690;2022-11-20T09:04:20;75.70;;;32.80;;
71080;SDS011;58740;50.672;18.690;2022-11-20T09:06:48;58.00;;;25.70;;
71080;SDS011;58740;50.672;18.690;2022-11-20T09:09:18;49.10;;;23.90;;
71080;SDS011;58740;50.672;18.690;2022-11-20T09:11:47;72.90;;;32.60;;
71080;SDS011;58740;50.672;18.690;2022-11-20T09:14:17;72.60;;;30.70;;
71080;SDS011;58740;50.672;18.690;2022-11-20T09:16:45;73.80;;;32.20;;
71080;SDS011;58740;50.672;18.690;2022-11-20T09:19:13;41.60;;;17.60;;
71080;SDS011;58740;50.672;18.690;2022-11-20T09:22:02;63.20;;;24.80;;
71080;SDS011;58740;50.672;18.690;2022-11-20T09:24:30;69.80;;;30.40;;
71080;SDS011;58740;50.672;18.690;2022-11-20T09:26:57;64.80;;;29.40;;
71080;SDS011;58740;50.672;18.690;2022-11-20T09:29:25;60.30;;;27.20;;
71080;SDS011;58740;50.672;18.690;2022-11-20T09:31:53;62.90;;;28.00;;
71080;SDS011;58740;50.672;18.690;2022-11-20T09:34:20;57.30;;;24.10;;
71080;SDS011;58740;50.672;18.690;2022-11-20T09:36:48;51.30;;;23.00;;
71080;SDS011;58740;50.672;18.690;2022-11-20T09:39:16;46.90;;;22.00;;
71080;SDS011;58740;50.672;18.690;2022-11-20T09:41:59;38.80;;;18.40;;
71080;SDS011;58740;50.672;18.690;2022-11-20T09:45:00;45.90;;;20.90;;
71080;SDS011;58740;50.672;18.690;2022-11-20T09:47:49;49.20;;;21.20;;
71080;SDS011;58740;50.672;18.690;2022-11-20T09:56:58;60.90;;;26.10;;
71080;SDS011;58740;50.672;18.690;2022-11-20T09:59:50;48.10;;;21.10;;
71080;SDS011;58740;50.672;18.690;2022-11-20T10:05:06;51.90;;;21.90;;
71080;SDS011;58740;50.672;18.690;2022-11-20T10:07:52;53.30;;;23.30;;
71080;SDS011;58740;50.672;18.690;2022-11-20T10:10:43;56.70;;;26.50;;
71080;SDS011;58740;50.672;18.690;2022-11-20T10:15:55;59.30;;;26.20;;
71080;SDS011;58740;50.672;18.690;2022-11-20T10:18:47;35.20;;;17.70;;
71080;SDS011;58740;50.672;18.690;2022-11-20T10:21:30;42.90;;;20.60;;
71080;SDS011;58740;50.672;18.690;2022-11-20T10:24:24;45.40;;;22.80;;
71080;SDS011;58740;50.672;18.690;2022-11-20T10:29:41;57.00;;;23.00;;
71080;SDS011;58740;50.672;18.690;2022-11-20T10:32:20;57.10;;;25.10;;
71080;SDS011;58740;50.672;18.690;2022-11-20T10:35:05;43.70;;;19.00;;
71080;SDS011;58740;50.672;18.690;2022-11-20T10:37:46;40.40;;;19.40;;
71080;SDS011;58740;50.672;18.690;2022-11-20T10:40:28;31.00;;;14.70;;
71080;SDS011;58740;50.672;18.690;2022-11-20T10:43:28;27.50;;;13.10;;
71080;SDS011;58740;50.672;18.690;2022-11-20T10:46:08;35.10;;;14.30;;
71080;SDS011;58740;50.672;18.690;2022-11-20T10:48:43;35.50;;;15.60;;
71080;SDS011;58740;50.672;18.690;2022-11-20T10:54:16;23.10;;;10.20;;
71080;SDS011;58740;50.672;18.690;2022-11-20T11:00:12;20.30;;;9.70;;
71080;SDS011;58740;50.672;18.690;2022-11-20T11:02:52;28.60;;;12.10;;
71080;SDS011;58740;50.672;18.690;2022-11-20T11:05:36;23.70;;;11.40;;
71080;SDS011;58740;50.672;18.690;2022-11-20T11:08:14;25.80;;;12.60;;
71080;SDS011;58740;50.672;18.690;2022-11-20T11:10:54;21.80;;;11.80;;
71080;SDS011;58740;50.672;18.690;2022-11-20T11:13:30;23.00;;;10.70;;
71080;SDS011;58740;50.672;18.690;2022-11-20T11:15:58;24.00;;;11.50;;
71080;SDS011;58740;50.672;18.690;2022-11-20T11:21:00;43.40;;;17.50;;
71080;SDS011;58740;50.672;18.690;2022-11-20T11:23:38;43.10;;;16.90;;
71080;SDS011;58740;50.672;18.690;2022-11-20T11:26:19;41.10;;;17.20;;
71080;SDS011;58740;50.672;18.690;2022-11-20T11:28:59;31.00;;;15.60;;
71080;SDS011;58740;50.672;18.690;2022-11-20T11:31:31;30.70;;;15.30;;
71080;SDS011;58740;50.672;18.690;2022-11-20T11:34:11;38.30;;;16.30;;
71080;SDS011;58740;50.672;18.690;2022-11-20T11:36:41;36.40;;;15.60;;
71080;SDS011;58740;50.672;18.690;2022-11-20T11:39:18;24.00;;;12.40;;
71080;SDS011;58740;50.672;18.690;2022-11-20T11:41:49;34.70;;;16.60;;
71080;SDS011;58740;50.672;18.690;2022-11-20T11:44:20;40.10;;;18.10;;
71080;SDS011;58740;50.672;18.690;2022-11-20T11:53:09;40.40;;;19.70;;
71080;SDS011;58740;50.672;18.690;2022-11-20T11:58:48;30.60;;;16.90;;
71080;SDS011;58740;50.672;18.690;2022-11-20T12:01:27;29.80;;;15.30;;
71080;SDS011;58740;50.672;18.690;2022-11-20T12:04:11;33.80;;;18.00;;
71080;SDS011;58740;50.672;18.690;2022-11-20T12:06:50;31.90;;;16.40;;
71080;SDS011;58740;50.672;18.690;2022-11-20T12:09:35;40.50;;;18.30;;
71080;SDS011;58740;50.672;18.690;2022-11-20T12:12:20;57.30;;;23.40;;
71080;SDS011;58740;50.672;18.690;2022-11-20T12:14:54;58.90;;;25.40;;
71080;SDS011;58740;50.672;18.690;2022-11-20T12:17:23;55.50;;;25.60;;
71080;SDS011;58740;50.672;18.690;2022-11-20T12:19:52;52.10;;;25.70;;
71080;SDS011;58740;50.672;18.690;2022-11-20T12:25:17;59.50;;;28.10;;
71080;SDS011;58740;50.672;18.690;2022-11-20T12:30:40;53.10;;;26.70;;
71080;SDS011;58740;50.672;18.690;2022-11-20T12:33:34;46.20;;;23.50;;
71080;SDS011;58740;50.672;18.690;2022-11-20T12:38:58;47.20;;;22.60;;
71080;SDS011;58740;50.672;18.690;2022-11-20T12:41:43;62.00;;;27.70;;
71080;SDS011;58740;50.672;18.690;2022-11-20T12:47:59;64.80;;;29.70;;
71080;SDS011;58740;50.672;18.690;2022-11-20T12:56:40;66.10;;;29.80;;
71080;SDS011;58740;50.672;18.690;2022-11-20T13:05:24;64.30;;;27.30;;
71080;SDS011;58740;50.672;18.690;2022-11-20T13:08:01;42.30;;;22.20;;
71080;SDS011;58740;50.672;18.690;2022-11-20T13:10:32;43.10;;;23.30;;
71080;SDS011;58740;50.672;18.690;2022-11-20T13:18:52;51.60;;;24.40;;
71080;SDS011;58740;50.672;18.690;2022-11-20T13:21:34;59.40;;;25.40;;
71080;SDS011;58740;50.672;18.690;2022-11-20T13:24:29;66.50;;;27.30;;
71080;SDS011;58740;50.672;18.690;2022-11-20T13:29:36;52.20;;;23.50;;
71080;SDS011;58740;50.672;18.690;2022-11-20T13:32:15;48.60;;;21.40;;
71080;SDS011;58740;50.672;18.690;2022-11-20T13:34:52;49.90;;;19.80;;
71080;SDS011;58740;50.672;18.690;2022-11-20T13:37:37;44.20;;;19.60;;
71080;SDS011;58740;50.672;18.690;2022-11-20T13:42:40;47.20;;;20.50;;
71080;SDS011;58740;50.672;18.690;2022-11-20T13:45:27;50.60;;;22.20;;
71080;SDS011;58740;50.672;18.690;2022-11-20T13:48:03;58.50;;;23.70;;
71080;SDS011;58740;50.672;18.690;2022-11-20T13:51:04;50.60;;;21.40;;
71080;SDS011;58740;50.672;18.690;2022-11-20T13:53:57;34.00;;;15.90;;
71080;SDS011;58740;50.672;18.690;2022-11-20T14:02:16;40.00;;;17.40;;
71080;SDS011;58740;50.672;18.690;2022-11-20T14:04:49;29.00;;;13.80;;
71080;SDS011;58740;50.672;18.690;2022-11-20T14:07:23;28.80;;;13.40;;
71080;SDS011;58740;50.672;18.690;2022-11-20T14:10:23;26.60;;;12.50;;
71080;SDS011;58740;50.672;18.690;2022-11-20T14:13:09;36.70;;;15.50;;
71080;SDS011;58740;50.672;18.690;2022-11-20T14:15:42;43.00;;;18.00;;
71080;SDS011;58740;50.672;18.690;2022-11-20T14:18:15;52.10;;;19.80;;
71080;SDS011;58740;50.672;18.690;2022-11-20T14:20:48;47.90;;;17.80;;
71080;SDS011;58740;50.672;18.690;2022-11-20T14:23:29;40.30;;;18.60;;
71080;SDS011;58740;50.672;18.690;2022-11-20T14:25:57;41.70;;;19.00;;
71080;SDS011;58740;50.672;18.690;2022-11-20T14:28:27;45.20;;;17.90;;
71080;SDS011;58740;50.672;18.690;2022-11-20T14:30:57;42.80;;;18.20;;
71080;SDS011;58740;50.672;18.690;2022-11-20T14:33:26;40.00;;;17.30;;
71080;SDS011;58740;50.672;18.690;2022-11-20T14:35:56;39.80;;;17.10;;
71080;SDS011;58740;50.672;18.690;2022-11-20T14:38:31;42.30;;;17.60;;
71080;SDS011;58740;50.672;18.690;2022-11-20T14:41:08;38.40;;;16.80;;
71080;SDS011;58740;50.672;18.690;2022-11-20T14:43:37;41.10;;;17.50;;
71080;SDS011;58740;50.672;18.690;2022-11-20T14:46:07;37.90;;;17.80;;
71080;SDS011;58740;50.672;18.690;2022-11-20T14:48:48;37.40;;;17.20;;
71080;SDS011;58740;50.672;18.690;2022-11-20T14:51:38;40.60;;;19.90;;
71080;SDS011;58740;50.672;18.690;2022-11-20T14:54:15;55.70;;;22.70;;
71080;SDS011;58740;50.672;18.690;2022-11-20T14:57:00;59.40;;;24.50;;
71080;SDS011;58740;50.672;18.690;2022-11-20T14:59:33;68.30;;;28.70;;
71080;SDS011;58740;50.672;18.690;2022-11-20T15:02:09;105.00;;;36.70;;
71080;SDS011;58740;50.672;18.690;2022-11-20T15:04:49;119.70;;;39.10;;
71080;SDS011;58740;50.672;18.690;2022-11-20T15:07:33;106.70;;;40.00;;
71080;SDS011;58740;50.672;18.690;2022-11-20T15:10:26;90.70;;;35.60;;
71080;SDS011;58740;50.672;18.690;2022-11-20T15:13:01;97.70;;;37.40;;
71080;SDS011;58740;50.672;18.690;2022-11-20T15:15:50;110.90;;;42.90;;
71080;SDS011;58740;50.672;18.690;2022-11-20T15:18:23;132.80;;;49.00;;
71080;SDS011;58740;50.672;18.690;2022-11-20T15:20:56;105.10;;;44.50;;
71080;SDS011;58740;50.672;18.690;2022-11-20T15:23:28;106.80;;;44.90;;
71080;SDS011;58740;50.672;18.690;2022-11-20T15:25:56;104.20;;;43.20;;
71080;SDS011;58740;50.672;18.690;2022-11-20T15:28:36;101.50;;;42.40;;
71080;SDS011;58740;50.672;18.690;2022-11-20T15:31:12;84.10;;;37.70;;
71080;SDS011;58740;50.672;18.690;2022-11-20T15:33:42;80.60;;;37.70;;
71080;SDS011;58740;50.672;18.690;2022-11-20T15:36:10;79.00;;;35.20;;
71080;SDS011;58740;50.672;18.690;2022-11-20T15:38:38;76.60;;;34.60;;
71080;SDS011;58740;50.672;18.690;2022-11-20T15:41:06;89.60;;;36.70;;
71080;SDS011;58740;50.672;18.690;2022-11-20T15:43:35;91.30;;;38.10;;
71080;SDS011;58740;50.672;18.690;2022-11-20T15:46:05;81.80;;;34.40;;
71080;SDS011;58740;50.672;18.690;2022-11-20T15:48:39;78.70;;;33.00;;
71080;SDS011;58740;50.672;18.690;2022-11-20T15:51:27;84.00;;;34.50;;
71080;SDS011;58740;50.672;18.690;2022-11-20T15:54:17;70.10;;;31.80;;